sensor_id;sensor_type;location;lat;lon;timestamp;P1;durP1;ratioP1;P2;durP2;ratioP2
36253;SDS011;22291;52.250;21.228;2022-09-27T00:00:36;35.63;;;27.58;;
36253;SDS011;22291;52.250;21.228;2022-09-27T00:03:05;36.05;;;26.95;;
36253;SDS011;22291;52.250;21.228;2022-09-27T00:05:31;39.88;;;30.15;;
36253;SDS011;22291;52.250;21.228;2022-09-27T00:07:57;39.55;;;28.00;;
36253;SDS011;22291;52.250;21.228;2022-09-27T00:10:24;45.40;;;31.15;;
36253;SDS011;22291;52.250;21.228;2022-09-27T00:12:50;42.00;;;29.80;;
36253;SDS011;22291;52.250;21.228;2022-09-27T00:15:17;41.30;;;30.97;;
36253;SDS011;22291;52.250;21.228;2022-09-27T00:17:44;43.10;;;30.68;;
36253;SDS011;22291;52.250;21.228;2022-09-27T00:20:10;43.78;;;30.95;;
36253;SDS011;22291;52.250;21.228;2022-09-27T00:22:37;44.42;;;32.30;;
36253;SDS011;22291;52.250;21.228;2022-09-27T00:25:03;41.33;;;31.17;;
36253;SDS011;22291;52.250;21.228;2022-09-27T00:27:32;42.05;;;29.42;;
36253;SDS011;22291;52.250;21.228;2022-09-27T00:29:58;45.83;;;31.42;;
36253;SDS011;22291;52.250;21.228;2022-09-27T00:32:24;44.42;;;32.93;;
36253;SDS011;22291;52.250;21.228;2022-09-27T00:34:50;42.53;;;30.00;;
36253;SDS011;22291;52.250;21.228;2022-09-27T00:37:16;49.58;;;32.15;;
36253;SDS011;22291;52.250;21.228;2022-09-27T00:39:42;45.35;;;30.65;;
36253;SDS011;22291;52.250;21.228;2022-09-27T00:42:09;43.08;;;32.08;;
36253;SDS011;22291;52.250;21.228;2022-09-27T00:50:05;42.78;;;31.25;;
36253;SDS011;22291;52.250;21.228;2022-09-27T00:55:33;46.37;;;32.75;;
36253;SDS011;22291;52.250;21.228;2022-09-27T00:58:03;41.73;;;30.52;;
36253;SDS011;22291;52.250;21.228;2022-09-27T01:00:31;40.88;;;29.23;;
36253;SDS011;22291;52.250;21.228;2022-09-27T01:02:57;45.30;;;31.48;;
36253;SDS011;22291;52.250;21.228;2022-09-27T01:05:26;43.40;;;31.37;;
36253;SDS011;22291;52.250;21.228;2022-09-27T01:07:54;45.65;;;30.55;;
36253;SDS011;22291;52.250;21.228;2022-09-27T01:10:26;47.17;;;31.33;;
36253;SDS011;22291;52.250;21.228;2022-09-27T01:18:36;45.43;;;31.75;;
36253;SDS011;22291;52.250;21.228;2022-09-27T01:21:08;44.55;;;31.07;;
36253;SDS011;22291;52.250;21.228;2022-09-27T01:26:43;46.73;;;31.93;;
36253;SDS011;22291;52.250;21.228;2022-09-27T01:43:39;43.15;;;31.20;;
36253;SDS011;22291;52.250;21.228;2022-09-27T01:46:06;44.18;;;29.95;;
36253;SDS011;22291;52.250;21.228;2022-09-27T01:48:41;44.85;;;30.62;;
36253;SDS011;22291;52.250;21.228;2022-09-27T01:51:11;46.65;;;31.33;;
36253;SDS011;22291;52.250;21.228;2022-09-27T01:53:42;46.18;;;31.73;;
36253;SDS011;22291;52.250;21.228;2022-09-27T01:56:13;50.20;;;33.15;;
36253;SDS011;22291;52.250;21.228;2022-09-27T01:59:30;45.40;;;32.98;;
36253;SDS011;22291;52.250;21.228;2022-09-27T02:01:35;48.60;;;31.62;;
36253;SDS011;22291;52.250;21.228;2022-09-27T02:04:04;49.45;;;33.33;;
36253;SDS011;22291;52.250;21.228;2022-09-27T02:06:36;50.23;;;32.78;;
36253;SDS011;22291;52.250;21.228;2022-09-27T02:09:08;49.40;;;32.58;;
36253;SDS011;22291;52.250;21.228;2022-09-27T02:11:41;56.37;;;33.88;;
36253;SDS011;22291;52.250;21.228;2022-09-27T02:17:11;49.70;;;32.10;;
36253;SDS011;22291;52.250;21.228;2022-09-27T02:20:17;52.43;;;33.00;;
36253;SDS011;22291;52.250;21.228;2022-09-27T02:22:48;50.67;;;32.67;;
36253;SDS011;22291;52.250;21.228;2022-09-27T02:25:45;49.98;;;32.38;;
36253;SDS011;22291;52.250;21.228;2022-09-27T02:28:39;56.85;;;35.08;;
36253;SDS011;22291;52.250;21.228;2022-09-27T02:31:06;54.50;;;34.83;;
36253;SDS011;22291;52.250;21.228;2022-09-27T02:33:34;56.85;;;35.23;;
36253;SDS011;22291;52.250;21.228;2022-09-27T02:36:05;51.70;;;32.50;;
36253;SDS011;22291;52.250;21.228;2022-09-27T02:38:31;60.05;;;34.48;;
36253;SDS011;22291;52.250;21.228;2022-09-27T02:40:58;58.90;;;34.45;;
36253;SDS011;22291;52.250;21.228;2022-09-27T02:43:26;69.30;;;33.90;;
36253;SDS011;22291;52.250;21.228;2022-09-27T03:00:20;55.75;;;32.70;;
36253;SDS011;22291;52.250;21.228;2022-09-27T03:08:19;64.53;;;34.50;;
36253;SDS011;22291;52.250;21.228;2022-09-27T03:10:45;60.85;;;35.00;;
36253;SDS011;22291;52.250;21.228;2022-09-27T03:13:14;59.67;;;33.40;;
36253;SDS011;22291;52.250;21.228;2022-09-27T03:15:40;65.52;;;35.88;;
36253;SDS011;22291;52.250;21.228;2022-09-27T03:18:06;57.90;;;33.88;;
36253;SDS011;22291;52.250;21.228;2022-09-27T03:20:32;59.40;;;34.48;;
36253;SDS011;22291;52.250;21.228;2022-09-27T03:22:59;69.35;;;34.43;;
36253;SDS011;22291;52.250;21.228;2022-09-27T03:25:25;60.40;;;35.10;;
36253;SDS011;22291;52.250;21.228;2022-09-27T03:27:51;73.47;;;38.28;;
36253;SDS011;22291;52.250;21.228;2022-09-27T03:30:17;63.63;;;35.28;;
36253;SDS011;22291;52.250;21.228;2022-09-27T03:32:43;67.97;;;34.85;;
36253;SDS011;22291;52.250;21.228;2022-09-27T03:35:11;67.35;;;36.23;;
36253;SDS011;22291;52.250;21.228;2022-09-27T03:37:39;70.50;;;35.83;;
36253;SDS011;22291;52.250;21.228;2022-09-27T03:40:06;60.55;;;35.40;;
36253;SDS011;22291;52.250;21.228;2022-09-27T03:42:34;69.50;;;34.13;;
36253;SDS011;22291;52.250;21.228;2022-09-27T03:45:00;64.87;;;35.35;;
36253;SDS011;22291;52.250;21.228;2022-09-27T03:47:27;63.20;;;35.35;;
36253;SDS011;22291;52.250;21.228;2022-09-27T03:49:53;64.10;;;36.05;;
36253;SDS011;22291;52.250;21.228;2022-09-27T03:52:19;61.45;;;36.48;;
36253;SDS011;22291;52.250;21.228;2022-09-27T03:54:47;58.45;;;33.75;;
36253;SDS011;22291;52.250;21.228;2022-09-27T03:57:13;62.43;;;35.50;;
36253;SDS011;22291;52.250;21.228;2022-09-27T03:59:39;57.13;;;33.58;;
36253;SDS011;22291;52.250;21.228;2022-09-27T04:02:06;61.55;;;34.43;;
36253;SDS011;22291;52.250;21.228;2022-09-27T04:04:32;70.78;;;34.53;;
36253;SDS011;22291;52.250;21.228;2022-09-27T04:06:58;61.30;;;34.88;;
36253;SDS011;22291;52.250;21.228;2022-09-27T04:09:24;55.90;;;33.63;;
36253;SDS011;22291;52.250;21.228;2022-09-27T04:11:50;58.42;;;35.23;;
36253;SDS011;22291;52.250;21.228;2022-09-27T04:14:16;57.85;;;34.08;;
36253;SDS011;22291;52.250;21.228;2022-09-27T04:16:43;58.98;;;34.43;;
36253;SDS011;22291;52.250;21.228;2022-09-27T04:19:09;57.08;;;33.73;;
36253;SDS011;22291;52.250;21.228;2022-09-27T04:21:35;54.08;;;33.67;;
36253;SDS011;22291;52.250;21.228;2022-09-27T04:24:01;59.45;;;34.67;;
36253;SDS011;22291;52.250;21.228;2022-09-27T04:26:29;56.92;;;34.13;;
36253;SDS011;22291;52.250;21.228;2022-09-27T04:28:55;61.53;;;35.23;;
36253;SDS011;22291;52.250;21.228;2022-09-27T04:31:22;62.15;;;34.80;;
36253;SDS011;22291;52.250;21.228;2022-09-27T04:33:48;62.73;;;34.83;;
36253;SDS011;22291;52.250;21.228;2022-09-27T04:36:16;62.85;;;30.62;;
36253;SDS011;22291;52.250;21.228;2022-09-27T04:38:52;65.22;;;31.30;;
36253;SDS011;22291;52.250;21.228;2022-09-27T04:41:23;54.53;;;31.50;;
36253;SDS011;22291;52.250;21.228;2022-09-27T04:43:52;57.08;;;28.85;;
36253;SDS011;22291;52.250;21.228;2022-09-27T04:46:20;57.60;;;29.25;;
36253;SDS011;22291;52.250;21.228;2022-09-27T04:48:48;54.85;;;28.55;;
36253;SDS011;22291;52.250;21.228;2022-09-27T04:51:15;57.03;;;28.07;;
36253;SDS011;22291;52.250;21.228;2022-09-27T04:53:43;64.35;;;27.60;;
36253;SDS011;22291;52.250;21.228;2022-09-27T04:56:10;56.88;;;24.80;;
36253;SDS011;22291;52.250;21.228;2022-09-27T04:58:38;57.73;;;26.10;;
36253;SDS011;22291;52.250;21.228;2022-09-27T05:01:05;60.20;;;27.00;;
36253;SDS011;22291;52.250;21.228;2022-09-27T05:03:33;61.08;;;26.12;;
36253;SDS011;22291;52.250;21.228;2022-09-27T05:06:00;66.90;;;26.45;;
36253;SDS011;22291;52.250;21.228;2022-09-27T05:08:27;64.60;;;25.32;;
36253;SDS011;22291;52.250;21.228;2022-09-27T05:10:54;69.07;;;25.82;;
36253;SDS011;22291;52.250;21.228;2022-09-27T05:13:20;69.17;;;25.25;;
36253;SDS011;22291;52.250;21.228;2022-09-27T05:15:47;79.37;;;25.85;;
36253;SDS011;22291;52.250;21.228;2022-09-27T05:18:13;65.55;;;25.23;;
36253;SDS011;22291;52.250;21.228;2022-09-27T05:20:39;62.53;;;25.97;;
36253;SDS011;22291;52.250;21.228;2022-09-27T05:23:06;68.33;;;26.42;;
36253;SDS011;22291;52.250;21.228;2022-09-27T05:25:33;57.40;;;24.57;;
36253;SDS011;22291;52.250;21.228;2022-09-27T05:28:00;51.83;;;24.50;;
36253;SDS011;22291;52.250;21.228;2022-09-27T05:30:27;55.67;;;22.98;;
36253;SDS011;22291;52.250;21.228;2022-09-27T05:32:54;43.98;;;23.57;;
36253;SDS011;22291;52.250;21.228;2022-09-27T05:35:20;42.03;;;21.82;;
36253;SDS011;22291;52.250;21.228;2022-09-27T05:37:57;42.33;;;22.65;;
36253;SDS011;22291;52.250;21.228;2022-09-27T05:40:25;49.85;;;23.50;;
36253;SDS011;22291;52.250;21.228;2022-09-27T05:42:53;44.70;;;22.17;;
36253;SDS011;22291;52.250;21.228;2022-09-27T05:45:22;48.87;;;23.18;;
36253;SDS011;22291;52.250;21.228;2022-09-27T05:47:54;44.50;;;24.75;;
36253;SDS011;22291;52.250;21.228;2022-09-27T05:50:23;43.65;;;23.80;;
36253;SDS011;22291;52.250;21.228;2022-09-27T05:52:51;42.83;;;24.07;;
36253;SDS011;22291;52.250;21.228;2022-09-27T05:55:18;40.83;;;21.75;;
36253;SDS011;22291;52.250;21.228;2022-09-27T05:57:55;43.60;;;23.20;;
36253;SDS011;22291;52.250;21.228;2022-09-27T06:00:27;45.75;;;20.05;;
36253;SDS011;22291;52.250;21.228;2022-09-27T06:02:55;41.23;;;20.80;;
36253;SDS011;22291;52.250;21.228;2022-09-27T06:05:25;48.63;;;23.67;;
36253;SDS011;22291;52.250;21.228;2022-09-27T06:08:05;40.85;;;21.15;;
36253;SDS011;22291;52.250;21.228;2022-09-27T06:10:31;46.37;;;22.07;;
36253;SDS011;22291;52.250;21.228;2022-09-27T06:12:59;45.15;;;21.77;;
36253;SDS011;22291;52.250;21.228;2022-09-27T06:15:28;51.53;;;24.65;;
36253;SDS011;22291;52.250;21.228;2022-09-27T06:17:56;50.17;;;24.98;;
36253;SDS011;22291;52.250;21.228;2022-09-27T06:20:24;54.50;;;25.55;;
36253;SDS011;22291;52.250;21.228;2022-09-27T06:22:51;59.95;;;31.50;;
36253;SDS011;22291;52.250;21.228;2022-09-27T06:25:18;64.62;;;31.55;;
36253;SDS011;22291;52.250;21.228;2022-09-27T06:27:45;56.73;;;28.07;;
36253;SDS011;22291;52.250;21.228;2022-09-27T06:30:11;49.80;;;24.57;;
36253;SDS011;22291;52.250;21.228;2022-09-27T06:32:37;55.05;;;26.00;;
36253;SDS011;22291;52.250;21.228;2022-09-27T06:35:04;51.65;;;26.97;;
36253;SDS011;22291;52.250;21.228;2022-09-27T06:37:31;53.20;;;27.67;;
36253;SDS011;22291;52.250;21.228;2022-09-27T06:39:58;49.50;;;25.82;;
36253;SDS011;22291;52.250;21.228;2022-09-27T06:42:25;49.63;;;25.80;;
36253;SDS011;22291;52.250;21.228;2022-09-27T06:44:52;52.85;;;27.90;;
36253;SDS011;22291;52.250;21.228;2022-09-27T06:47:18;52.70;;;27.42;;
36253;SDS011;22291;52.250;21.228;2022-09-27T06:49:44;54.25;;;27.65;;
36253;SDS011;22291;52.250;21.228;2022-09-27T06:52:11;53.73;;;28.23;;
36253;SDS011;22291;52.250;21.228;2022-09-27T06:54:37;53.30;;;28.10;;
36253;SDS011;22291;52.250;21.228;2022-09-27T06:57:03;48.48;;;26.17;;
36253;SDS011;22291;52.250;21.228;2022-09-27T06:59:30;51.45;;;26.62;;
36253;SDS011;22291;52.250;21.228;2022-09-27T07:02:15;50.33;;;25.95;;
36253;SDS011;22291;52.250;21.228;2022-09-27T07:04:41;54.45;;;27.13;;
36253;SDS011;22291;52.250;21.228;2022-09-27T07:07:08;45.12;;;24.20;;
36253;SDS011;22291;52.250;21.228;2022-09-27T07:09:35;42.75;;;23.70;;
36253;SDS011;22291;52.250;21.228;2022-09-27T07:12:03;47.20;;;24.65;;
36253;SDS011;22291;52.250;21.228;2022-09-27T07:14:30;50.50;;;26.55;;
36253;SDS011;22291;52.250;21.228;2022-09-27T07:16:57;55.10;;;25.68;;
36253;SDS011;22291;52.250;21.228;2022-09-27T07:19:23;49.30;;;25.37;;
36253;SDS011;22291;52.250;21.228;2022-09-27T07:21:50;57.80;;;27.52;;
36253;SDS011;22291;52.250;21.228;2022-09-27T07:24:17;53.63;;;27.62;;
36253;SDS011;22291;52.250;21.228;2022-09-27T07:26:43;53.08;;;26.33;;
36253;SDS011;22291;52.250;21.228;2022-09-27T07:29:09;52.08;;;26.68;;
36253;SDS011;22291;52.250;21.228;2022-09-27T07:31:35;51.25;;;25.60;;
36253;SDS011;22291;52.250;21.228;2022-09-27T07:34:02;49.00;;;24.95;;
36253;SDS011;22291;52.250;21.228;2022-09-27T07:36:28;48.35;;;25.00;;
36253;SDS011;22291;52.250;21.228;2022-09-27T07:38:57;55.60;;;26.30;;
36253;SDS011;22291;52.250;21.228;2022-09-27T07:41:24;46.10;;;23.83;;
36253;SDS011;22291;52.250;21.228;2022-09-27T07:43:50;45.20;;;23.38;;
36253;SDS011;22291;52.250;21.228;2022-09-27T07:46:16;45.43;;;23.52;;
36253;SDS011;22291;52.250;21.228;2022-09-27T07:48:42;41.10;;;21.87;;
36253;SDS011;22291;52.250;21.228;2022-09-27T07:51:10;42.98;;;20.70;;
36253;SDS011;22291;52.250;21.228;2022-09-27T07:53:36;40.00;;;21.42;;
36253;SDS011;22291;52.250;21.228;2022-09-27T07:56:03;43.45;;;22.15;;
36253;SDS011;22291;52.250;21.228;2022-09-27T07:58:29;42.93;;;23.02;;
36253;SDS011;22291;52.250;21.228;2022-09-27T08:00:57;43.90;;;21.93;;
36253;SDS011;22291;52.250;21.228;2022-09-27T08:03:25;38.50;;;20.70;;
36253;SDS011;22291;52.250;21.228;2022-09-27T08:05:51;39.15;;;20.30;;
36253;SDS011;22291;52.250;21.228;2022-09-27T08:08:17;40.25;;;20.17;;
36253;SDS011;22291;52.250;21.228;2022-09-27T08:10:43;38.50;;;20.52;;
36253;SDS011;22291;52.250;21.228;2022-09-27T08:13:11;42.53;;;21.23;;
36253;SDS011;22291;52.250;21.228;2022-09-27T08:15:39;41.45;;;19.50;;
36253;SDS011;22291;52.250;21.228;2022-09-27T08:18:06;40.58;;;21.35;;
36253;SDS011;22291;52.250;21.228;2022-09-27T08:20:35;38.10;;;21.02;;
36253;SDS011;22291;52.250;21.228;2022-09-27T08:23:02;34.18;;;20.10;;
36253;SDS011;22291;52.250;21.228;2022-09-27T08:25:28;42.08;;;22.65;;
36253;SDS011;22291;52.250;21.228;2022-09-27T08:27:56;41.55;;;21.10;;
36253;SDS011;22291;52.250;21.228;2022-09-27T08:30:25;33.08;;;20.70;;
36253;SDS011;22291;52.250;21.228;2022-09-27T08:32:54;31.17;;;20.25;;
36253;SDS011;22291;52.250;21.228;2022-09-27T08:35:21;32.53;;;20.32;;
36253;SDS011;22291;52.250;21.228;2022-09-27T08:37:52;31.40;;;17.80;;
36253;SDS011;22291;52.250;21.228;2022-09-27T08:40:22;28.27;;;17.42;;
36253;SDS011;22291;52.250;21.228;2022-09-27T08:46:11;25.35;;;16.52;;
36253;SDS011;22291;52.250;21.228;2022-09-27T08:48:53;24.52;;;16.20;;
36253;SDS011;22291;52.250;21.228;2022-09-27T08:51:31;21.65;;;14.28;;
36253;SDS011;22291;52.250;21.228;2022-09-27T08:54:01;23.00;;;14.93;;
36253;SDS011;22291;52.250;21.228;2022-09-27T08:56:31;21.17;;;13.10;;
36253;SDS011;22291;52.250;21.228;2022-09-27T08:59:00;20.30;;;13.03;;
36253;SDS011;22291;52.250;21.228;2022-09-27T09:01:39;19.10;;;13.78;;
36253;SDS011;22291;52.250;21.228;2022-09-27T09:04:05;22.35;;;14.80;;
36253;SDS011;22291;52.250;21.228;2022-09-27T09:06:40;17.82;;;13.38;;
36253;SDS011;22291;52.250;21.228;2022-09-27T09:12:13;20.10;;;13.75;;
36253;SDS011;22291;52.250;21.228;2022-09-27T09:23:34;18.45;;;13.00;;
36253;SDS011;22291;52.250;21.228;2022-09-27T09:34:37;19.15;;;12.55;;
36253;SDS011;22291;52.250;21.228;2022-09-27T09:37:11;19.17;;;12.70;;
36253;SDS011;22291;52.250;21.228;2022-09-27T09:42:25;17.65;;;12.07;;
36253;SDS011;22291;52.250;21.228;2022-09-27T09:45:02;22.17;;;12.75;;
36253;SDS011;22291;52.250;21.228;2022-09-27T09:50:28;17.92;;;13.20;;
36253;SDS011;22291;52.250;21.228;2022-09-27T09:53:04;17.75;;;12.75;;
36253;SDS011;22291;52.250;21.228;2022-09-27T09:56:02;16.00;;;11.88;;
36253;SDS011;22291;52.250;21.228;2022-09-27T09:58:43;18.15;;;13.22;;
36253;SDS011;22291;52.250;21.228;2022-09-27T10:01:20;16.23;;;12.07;;
36253;SDS011;22291;52.250;21.228;2022-09-27T10:03:54;17.98;;;12.95;;
36253;SDS011;22291;52.250;21.228;2022-09-27T10:06:21;16.40;;;12.28;;
36253;SDS011;22291;52.250;21.228;2022-09-27T10:08:50;14.78;;;11.38;;
36253;SDS011;22291;52.250;21.228;2022-09-27T10:11:22;18.00;;;12.85;;
36253;SDS011;22291;52.250;21.228;2022-09-27T10:13:52;18.73;;;12.55;;
36253;SDS011;22291;52.250;21.228;2022-09-27T10:16:22;17.12;;;11.22;;
36253;SDS011;22291;52.250;21.228;2022-09-27T10:18:50;14.43;;;10.58;;
36253;SDS011;22291;52.250;21.228;2022-09-27T10:21:27;16.07;;;10.38;;
36253;SDS011;22291;52.250;21.228;2022-09-27T10:24:01;12.82;;;9.60;;
36253;SDS011;22291;52.250;21.228;2022-09-27T10:26:37;12.73;;;9.90;;
36253;SDS011;22291;52.250;21.228;2022-09-27T10:29:14;13.45;;;10.38;;
36253;SDS011;22291;52.250;21.228;2022-09-27T10:31:56;11.50;;;9.73;;
36253;SDS011;22291;52.250;21.228;2022-09-27T10:34:37;13.53;;;10.72;;
36253;SDS011;22291;52.250;21.228;2022-09-27T10:37:17;13.00;;;9.88;;
36253;SDS011;22291;52.250;21.228;2022-09-27T10:39:47;11.80;;;9.20;;
36253;SDS011;22291;52.250;21.228;2022-09-27T10:47:53;12.50;;;9.75;;
36253;SDS011;22291;52.250;21.228;2022-09-27T10:50:22;12.60;;;9.45;;
36253;SDS011;22291;52.250;21.228;2022-09-27T10:55:45;13.13;;;10.55;;
36253;SDS011;22291;52.250;21.228;2022-09-27T10:58:30;12.90;;;8.68;;
36253;SDS011;22291;52.250;21.228;2022-09-27T11:01:03;12.45;;;9.33;;
36253;SDS011;22291;52.250;21.228;2022-09-27T11:03:37;13.62;;;12.00;;
36253;SDS011;22291;52.250;21.228;2022-09-27T11:08:55;11.88;;;9.48;;
36253;SDS011;22291;52.250;21.228;2022-09-27T11:11:36;13.58;;;11.38;;
36253;SDS011;22291;52.250;21.228;2022-09-27T11:14:03;10.60;;;9.50;;
36253;SDS011;22291;52.250;21.228;2022-09-27T11:16:37;12.07;;;8.35;;
36253;SDS011;22291;52.250;21.228;2022-09-27T11:19:34;11.18;;;8.13;;
36253;SDS011;22291;52.250;21.228;2022-09-27T11:46:17;9.85;;;7.72;;
36253;SDS011;22291;52.250;21.228;2022-09-27T11:57:26;14.18;;;10.58;;
36253;SDS011;22291;52.250;21.228;2022-09-27T12:00:19;12.85;;;10.15;;
36253;SDS011;22291;52.250;21.228;2022-09-27T12:05:58;15.78;;;10.50;;
36253;SDS011;22291;52.250;21.228;2022-09-27T12:11:42;13.68;;;10.60;;
36253;SDS011;22291;52.250;21.228;2022-09-27T12:17:10;14.70;;;10.93;;
36253;SDS011;22291;52.250;21.228;2022-09-27T12:19:51;13.13;;;10.15;;
36253;SDS011;22291;52.250;21.228;2022-09-27T12:22:32;15.88;;;11.35;;
36253;SDS011;22291;52.250;21.228;2022-09-27T12:25:02;15.32;;;10.08;;
36253;SDS011;22291;52.250;21.228;2022-09-27T12:27:34;14.10;;;10.33;;
36253;SDS011;22291;52.250;21.228;2022-09-27T12:30:11;14.25;;;10.45;;
36253;SDS011;22291;52.250;21.228;2022-09-27T12:32:52;13.25;;;9.83;;
36253;SDS011;22291;52.250;21.228;2022-09-27T12:35:46;14.13;;;11.05;;
36253;SDS011;22291;52.250;21.228;2022-09-27T12:38:18;14.18;;;10.63;;
36253;SDS011;22291;52.250;21.228;2022-09-27T12:41:09;15.05;;;10.53;;
36253;SDS011;22291;52.250;21.228;2022-09-27T12:43:41;14.33;;;10.43;;
36253;SDS011;22291;52.250;21.228;2022-09-27T12:46:31;15.15;;;11.18;;
36253;SDS011;22291;52.250;21.228;2022-09-27T12:52:35;18.00;;;11.25;;
36253;SDS011;22291;52.250;21.228;2022-09-27T12:55:23;13.45;;;10.45;;
36253;SDS011;22291;52.250;21.228;2022-09-27T13:01:01;14.25;;;11.53;;
36253;SDS011;22291;52.250;21.228;2022-09-27T13:09:31;11.53;;;10.32;;
36253;SDS011;22291;52.250;21.228;2022-09-27T13:14:55;12.53;;;11.05;;
36253;SDS011;22291;52.250;21.228;2022-09-27T13:23:13;13.65;;;10.45;;
36253;SDS011;22291;52.250;21.228;2022-09-27T13:25:48;12.58;;;10.15;;
36253;SDS011;22291;52.250;21.228;2022-09-27T13:33:46;11.35;;;9.75;;
36253;SDS011;22291;52.250;21.228;2022-09-27T13:41:38;18.23;;;10.58;;
36253;SDS011;22291;52.250;21.228;2022-09-27T13:44:13;10.58;;;9.48;;
36253;SDS011;22291;52.250;21.228;2022-09-27T13:47:12;10.68;;;9.30;;
36253;SDS011;22291;52.250;21.228;2022-09-27T13:49:42;10.58;;;9.13;;
36253;SDS011;22291;52.250;21.228;2022-09-27T13:52:19;9.68;;;8.68;;
36253;SDS011;22291;52.250;21.228;2022-09-27T13:54:58;10.53;;;9.13;;
36253;SDS011;22291;52.250;21.228;2022-09-27T13:57:49;11.18;;;8.35;;
36253;SDS011;22291;52.250;21.228;2022-09-27T14:00:24;10.00;;;8.78;;
36253;SDS011;22291;52.250;21.228;2022-09-27T14:05:45;13.62;;;9.60;;
36253;SDS011;22291;52.250;21.228;2022-09-27T14:11:28;9.78;;;8.58;;
36253;SDS011;22291;52.250;21.228;2022-09-27T14:14:06;11.35;;;9.10;;
36253;SDS011;22291;52.250;21.228;2022-09-27T14:16:41;11.55;;;8.85;;
36253;SDS011;22291;52.250;21.228;2022-09-27T14:19:17;11.93;;;9.38;;
36253;SDS011;22291;52.250;21.228;2022-09-27T14:21:45;10.40;;;8.88;;
36253;SDS011;22291;52.250;21.228;2022-09-27T14:24:41;9.85;;;8.60;;
36253;SDS011;22291;52.250;21.228;2022-09-27T14:27:13;10.38;;;8.90;;
36253;SDS011;22291;52.250;21.228;2022-09-27T14:29:48;10.08;;;8.48;;
36253;SDS011;22291;52.250;21.228;2022-09-27T14:32:19;9.85;;;8.65;;
36253;SDS011;22291;52.250;21.228;2022-09-27T14:35:11;11.78;;;9.53;;
36253;SDS011;22291;52.250;21.228;2022-09-27T14:38:00;13.32;;;9.70;;
36253;SDS011;22291;52.250;21.228;2022-09-27T14:40:30;11.22;;;8.40;;
36253;SDS011;22291;52.250;21.228;2022-09-27T14:43:12;9.30;;;8.35;;
36253;SDS011;22291;52.250;21.228;2022-09-27T14:45:45;10.80;;;8.80;;
36253;SDS011;22291;52.250;21.228;2022-09-27T14:48:20;10.63;;;9.43;;
36253;SDS011;22291;52.250;21.228;2022-09-27T14:53:29;10.75;;;8.38;;
36253;SDS011;22291;52.250;21.228;2022-09-27T14:55:59;11.03;;;9.03;;
36253;SDS011;22291;52.250;21.228;2022-09-27T14:58:31;11.75;;;9.73;;
36253;SDS011;22291;52.250;21.228;2022-09-27T15:00:57;11.05;;;9.05;;
36253;SDS011;22291;52.250;21.228;2022-09-27T15:03:30;15.88;;;8.83;;
36253;SDS011;22291;52.250;21.228;2022-09-27T15:05:59;9.80;;;8.80;;
36253;SDS011;22291;52.250;21.228;2022-09-27T15:08:27;10.72;;;9.38;;
36253;SDS011;22291;52.250;21.228;2022-09-27T15:11:05;11.28;;;9.28;;
36253;SDS011;22291;52.250;21.228;2022-09-27T15:13:32;10.68;;;9.35;;
36253;SDS011;22291;52.250;21.228;2022-09-27T15:16:08;10.78;;;8.78;;
36253;SDS011;22291;52.250;21.228;2022-09-27T15:18:45;11.93;;;9.80;;
36253;SDS011;22291;52.250;21.228;2022-09-27T15:21:34;15.65;;;11.97;;
36253;SDS011;22291;52.250;21.228;2022-09-27T15:24:03;13.58;;;11.15;;
36253;SDS011;22291;52.250;21.228;2022-09-27T15:26:33;12.30;;;10.58;;
36253;SDS011;22291;52.250;21.228;2022-09-27T15:29:05;12.40;;;9.40;;
36253;SDS011;22291;52.250;21.228;2022-09-27T15:31:34;14.43;;;10.68;;
36253;SDS011;22291;52.250;21.228;2022-09-27T15:34:01;12.93;;;9.38;;
36253;SDS011;22291;52.250;21.228;2022-09-27T15:39:28;12.13;;;10.25;;
36253;SDS011;22291;52.250;21.228;2022-09-27T15:44:50;11.48;;;8.90;;
36253;SDS011;22291;52.250;21.228;2022-09-27T15:52:53;11.90;;;9.15;;
36253;SDS011;22291;52.250;21.228;2022-09-27T15:55:24;12.00;;;8.55;;
36253;SDS011;22291;52.250;21.228;2022-09-27T15:57:58;13.48;;;9.50;;
36253;SDS011;22291;52.250;21.228;2022-09-27T16:00:27;11.22;;;8.28;;
36253;SDS011;22291;52.250;21.228;2022-09-27T16:02:54;12.90;;;9.00;;
36253;SDS011;22291;52.250;21.228;2022-09-27T16:05:21;12.10;;;8.85;;
36253;SDS011;22291;52.250;21.228;2022-09-27T16:07:48;11.65;;;8.88;;
36253;SDS011;22291;52.250;21.228;2022-09-27T16:10:18;12.45;;;9.00;;
36253;SDS011;22291;52.250;21.228;2022-09-27T16:12:47;11.97;;;10.25;;
36253;SDS011;22291;52.250;21.228;2022-09-27T16:15:15;12.75;;;9.75;;
36253;SDS011;22291;52.250;21.228;2022-09-27T16:17:41;10.82;;;8.38;;
36253;SDS011;22291;52.250;21.228;2022-09-27T16:20:19;15.03;;;9.98;;
36253;SDS011;22291;52.250;21.228;2022-09-27T16:22:49;12.15;;;9.45;;
36253;SDS011;22291;52.250;21.228;2022-09-27T16:25:17;11.55;;;9.03;;
36253;SDS011;22291;52.250;21.228;2022-09-27T16:27:45;12.93;;;9.83;;
36253;SDS011;22291;52.250;21.228;2022-09-27T16:30:13;13.90;;;10.35;;
36253;SDS011;22291;52.250;21.228;2022-09-27T16:32:40;11.30;;;9.23;;
36253;SDS011;22291;52.250;21.228;2022-09-27T16:35:08;11.28;;;9.15;;
36253;SDS011;22291;52.250;21.228;2022-09-27T16:37:36;12.43;;;9.28;;
36253;SDS011;22291;52.250;21.228;2022-09-27T16:40:03;14.78;;;11.68;;
36253;SDS011;22291;52.250;21.228;2022-09-27T16:42:36;12.18;;;9.58;;
36253;SDS011;22291;52.250;21.228;2022-09-27T16:45:03;11.83;;;9.20;;
36253;SDS011;22291;52.250;21.228;2022-09-27T16:47:32;11.12;;;9.40;;
36253;SDS011;22291;52.250;21.228;2022-09-27T16:50:00;13.65;;;9.90;;
36253;SDS011;22291;52.250;21.228;2022-09-27T16:52:45;12.58;;;10.35;;
36253;SDS011;22291;52.250;21.228;2022-09-27T16:55:13;14.78;;;11.20;;
36253;SDS011;22291;52.250;21.228;2022-09-27T16:57:41;18.73;;;11.18;;
36253;SDS011;22291;52.250;21.228;2022-09-27T17:00:08;16.10;;;10.60;;
36253;SDS011;22291;52.250;21.228;2022-09-27T17:02:36;13.65;;;10.03;;
36253;SDS011;22291;52.250;21.228;2022-09-27T17:05:02;25.23;;;17.42;;
36253;SDS011;22291;52.250;21.228;2022-09-27T17:07:29;27.42;;;19.87;;
36253;SDS011;22291;52.250;21.228;2022-09-27T17:09:55;13.53;;;10.15;;
36253;SDS011;22291;52.250;21.228;2022-09-27T17:12:22;15.15;;;11.18;;
36253;SDS011;22291;52.250;21.228;2022-09-27T17:14:49;16.95;;;11.85;;
36253;SDS011;22291;52.250;21.228;2022-09-27T17:17:16;18.60;;;11.83;;
36253;SDS011;22291;52.250;21.228;2022-09-27T17:19:42;16.23;;;11.63;;
36253;SDS011;22291;52.250;21.228;2022-09-27T17:22:09;17.85;;;12.53;;
36253;SDS011;22291;52.250;21.228;2022-09-27T17:24:35;18.02;;;12.28;;
36253;SDS011;22291;52.250;21.228;2022-09-27T17:27:01;19.40;;;11.88;;
36253;SDS011;22291;52.250;21.228;2022-09-27T17:29:28;17.48;;;11.55;;
36253;SDS011;22291;52.250;21.228;2022-09-27T17:31:55;24.50;;;14.65;;
36253;SDS011;22291;52.250;21.228;2022-09-27T17:34:21;23.52;;;16.05;;
36253;SDS011;22291;52.250;21.228;2022-09-27T17:36:48;24.70;;;15.68;;
36253;SDS011;22291;52.250;21.228;2022-09-27T17:39:16;23.27;;;14.85;;